Time;durP1;ratioP1;P1;durP2;ratioP2;P2;SDS_P1;SDS_P2;PMS_P1;PMS_P2;Temp;Humidity;BMP_temperature;BMP_pressure;BME280_temperature;BME280_humidity;BME280_pressure;Samples;Min_cycle;Max_cycle;Signal;HPM_P1;HPM_P2
2022/01/15 00:00:34;;;;;;;3.90;2.80;;;;;;;;;;5036892;28;20036;-38
2022/01/15 00:02:59;;;;;;;4.53;3.50;;;;;;;;;;5045245;28;20059;-32
2022/01/15 00:05:25;;;;;;;3.67;2.83;;;;;;;;;;5045340;28;20534;-32
2022/01/15 00:07:50;;;;;;;3.33;2.83;;;;;;;;;;5045542;28;20033;-36
2022/01/15 00:10:20;;;;;;;3.53;2.80;;;;;;;;;;5044937;28;20037;-34
2022/01/15 00:12:45;;;;;;;4.70;3.25;;;;;;;;;;5045181;28;20031;-38
2022/01/15 00:15:16;;;;;;;3.38;2.80;;;;;;;;;;5045297;28;20037;-34
2022/01/15 00:17:57;;;;;;;3.47;3.10;;;;;;;;;;5044563;28;20037;-40
2022/01/15 00:20:23;;;;;;;3.90;2.85;;;;;;;;;;5044366;28;20032;-37
2022/01/15 00:22:50;;;;;;;3.13;2.58;;;;;;;;;;5044660;28;20029;-38
2022/01/15 00:25:16;;;;;;;4.50;3.17;;;;;;;;;;5030849;28;20082;-39
2022/01/15 00:27:42;;;;;;;3.08;2.63;;;;;;;;;;5025083;28;20422;-34
2022/01/15 00:30:08;;;;;;;3.50;2.70;;;;;;;;;;5025042;28;20029;-38
2022/01/15 00:32:33;;;;;;;4.00;2.70;;;;;;;;;;5023839;28;20025;-39
2022/01/15 00:35:00;;;;;;;4.03;2.90;;;;;;;;;;5024705;28;20029;-40
2022/01/15 00:37:31;;;;;;;3.40;2.47;;;;;;;;;;5025352;28;20029;-36
2022/01/15 00:40:01;;;;;;;2.72;2.40;;;;;;;;;;5025034;28;20104;-39
2022/01/15 00:42:27;;;;;;;3.88;2.72;;;;;;;;;;5024953;28;20029;-32
2022/01/15 00:44:54;;;;;;;3.38;2.58;;;;;;;;;;5025224;28;20029;-39
2022/01/15 00:47:19;;;;;;;3.92;2.70;;;;;;;;;;5024944;28;20033;-38
2022/01/15 00:49:45;;;;;;;2.70;2.30;;;;;;;;;;5024269;28;20535;-40
2022/01/15 00:52:10;;;;;;;4.13;2.78;;;;;;;;;;5024894;28;20074;-36
2022/01/15 00:54:36;;;;;;;3.13;2.53;;;;;;;;;;5024557;28;20026;-40
2022/01/15 00:57:02;;;;;;;3.25;2.58;;;;;;;;;;5030780;28;20056;-40
2022/01/15 00:59:27;;;;;;;3.20;2.55;;;;;;;;;;5037709;28;20025;-40
2022/01/15 01:01:53;;;;;;;3.33;2.70;;;;;;;;;;5024970;28;20032;-39
2022/01/15 01:04:19;;;;;;;3.25;2.30;;;;;;;;;;5024491;28;20025;-40
2022/01/15 01:06:44;;;;;;;3.13;2.63;;;;;;;;;;5024862;28;20477;-34
2022/01/15 01:09:10;;;;;;;3.08;2.20;;;;;;;;;;5024552;28;20049;-35
2022/01/15 01:11:51;;;;;;;3.00;2.30;;;;;;;;;;5024127;28;20017;-39
2022/01/15 01:23:02;;;;;;;2.85;2.55;;;;;;;;;;5024668;28;20037;-38
2022/01/15 01:25:23;;;;;;;2.50;2.25;;;;;;;;;;5021650;28;20503;-37
2022/01/15 01:27:52;;;;;;;2.63;2.20;;;;;;;;;;5025840;28;20411;-37
2022/01/15 01:30:25;;;;;;;2.22;1.80;;;;;;;;;;5028105;28;20061;-39
2022/01/15 01:35:31;;;;;;;2.60;2.17;;;;;;;;;;5037613;28;20065;-39
2022/01/15 01:38:05;;;;;;;2.38;1.90;;;;;;;;;;5048229;28;20024;-39
2022/01/15 01:40:38;;;;;;;2.38;2.10;;;;;;;;;;5047325;28;20511;-36
2022/01/15 01:43:25;;;;;;;2.58;1.92;;;;;;;;;;5047799;28;20032;-40
2022/01/15 01:45:59;;;;;;;2.85;2.35;;;;;;;;;;5047790;28;20094;-40
2022/01/15 01:48:25;;;;;;;2.30;2.00;;;;;;;;;;5046901;28;20028;-37
2022/01/15 01:50:50;;;;;;;2.80;1.98;;;;;;;;;;5046912;28;20021;-40
2022/01/15 01:53:16;;;;;;;2.97;2.08;;;;;;;;;;5041636;28;20033;-38
2022/01/15 01:55:42;;;;;;;2.78;2.00;;;;;;;;;;5033045;28;20028;-39
2022/01/15 01:58:07;;;;;;;2.33;1.90;;;;;;;;;;5027007;28;20025;-38
2022/01/15 02:00:33;;;;;;;2.42;1.98;;;;;;;;;;5027348;28;20033;-33
2022/01/15 02:02:58;;;;;;;2.40;1.80;;;;;;;;;;5027140;28;20114;-37
2022/01/15 02:05:24;;;;;;;2.08;1.80;;;;;;;;;;5046804;28;20057;-39
2022/01/15 02:07:50;;;;;;;2.55;2.15;;;;;;;;;;5045291;28;20041;-37
2022/01/15 02:10:19;;;;;;;1.98;1.73;;;;;;;;;;5036561;28;20044;-38
2022/01/15 02:12:46;;;;;;;2.50;1.70;;;;;;;;;;5047272;28;20032;-39
2022/01/15 02:15:13;;;;;;;2.15;1.70;;;;;;;;;;5045320;28;20123;-32
2022/01/15 02:17:42;;;;;;;2.47;1.90;;;;;;;;;;5046721;28;20028;-39
2022/01/15 02:25:44;;;;;;;2.00;1.63;;;;;;;;;;5029862;28;20064;-39
2022/01/15 02:28:09;;;;;;;2.88;2.00;;;;;;;;;;5035688;28;20499;-37
2022/01/15 02:30:35;;;;;;;2.28;1.90;;;;;;;;;;5026616;28;20030;-37
2022/01/15 02:33:00;;;;;;;1.90;1.52;;;;;;;;;;5026944;28;20072;-33
2022/01/15 02:35:26;;;;;;;2.33;1.70;;;;;;;;;;5026504;28;20079;-37
2022/01/15 02:37:52;;;;;;;1.95;1.58;;;;;;;;;;5037610;28;20477;-35
2022/01/15 02:40:17;;;;;;;2.20;1.83;;;;;;;;;;5041681;28;20034;-35
2022/01/15 02:42:43;;;;;;;2.05;1.50;;;;;;;;;;5025865;28;20029;-40
2022/01/15 02:45:08;;;;;;;3.45;1.70;;;;;;;;;;5029501;28;20039;-34
2022/01/15 02:50:21;;;;;;;2.17;1.40;;;;;;;;;;5036496;28;20044;-39
2022/01/15 02:52:47;;;;;;;2.30;1.50;;;;;;;;;;5041490;28;20025;-37
2022/01/15 02:55:12;;;;;;;1.60;1.35;;;;;;;;;;5038509;28;20752;-39
2022/01/15 02:57:38;;;;;;;1.63;1.50;;;;;;;;;;5039657;28;20021;-40
2022/01/15 03:00:04;;;;;;;1.80;1.48;;;;;;;;;;5040531;28;20034;-38
2022/01/15 03:02:32;;;;;;;1.80;1.45;;;;;;;;;;5026391;28;20029;-37
2022/01/15 03:04:57;;;;;;;1.80;1.40;;;;;;;;;;5026798;28;20076;-31
2022/01/15 03:07:23;;;;;;;1.40;1.13;;;;;;;;;;5026440;28;20495;-39
2022/01/15 03:09:48;;;;;;;1.85;1.40;;;;;;;;;;5026319;28;20045;-39
2022/01/15 03:12:14;;;;;;;1.58;1.35;;;;;;;;;;5026565;28;20033;-40
2022/01/15 03:14:40;;;;;;;5.13;1.45;;;;;;;;;;5026265;28;20610;-40
2022/01/15 03:17:05;;;;;;;1.92;1.40;;;;;;;;;;5026435;28;20021;-39
2022/01/15 03:19:31;;;;;;;1.85;1.40;;;;;;;;;;5026451;28;20069;-36
2022/01/15 03:21:56;;;;;;;2.28;1.58;;;;;;;;;;5039565;28;20029;-39
2022/01/15 03:24:22;;;;;;;1.65;1.25;;;;;;;;;;5044444;28;20111;-39
2022/01/15 03:26:47;;;;;;;1.88;1.30;;;;;;;;;;5046072;28;20060;-38
2022/01/15 03:29:13;;;;;;;2.08;1.30;;;;;;;;;;5046030;28;20639;-37
2022/01/15 03:31:38;;;;;;;1.55;1.25;;;;;;;;;;5045985;28;20020;-39
2022/01/15 03:34:04;;;;;;;1.98;1.27;;;;;;;;;;5045607;28;20033;-40
2022/01/15 03:36:29;;;;;;;1.20;1.10;;;;;;;;;;5046353;28;20046;-37
2022/01/15 03:38:55;;;;;;;1.40;1.27;;;;;;;;;;5045802;28;20376;-39
2022/01/15 03:41:20;;;;;;;1.45;1.20;;;;;;;;;;5043205;28;20072;-39
2022/01/15 03:43:46;;;;;;;1.30;1.20;;;;;;;;;;5045404;28;20430;-37
2022/01/15 03:46:12;;;;;;;3.53;1.33;;;;;;;;;;5038884;28;20120;-40
2022/01/15 03:48:37;;;;;;;5.25;1.30;;;;;;;;;;5039233;28;20438;-36
2022/01/15 03:51:03;;;;;;;1.67;1.00;;;;;;;;;;5042450;28;20063;-38
2022/01/15 03:53:29;;;;;;;2.15;1.50;;;;;;;;;;5038289;28;20469;-37
2022/01/15 03:55:55;;;;;;;4.82;1.10;;;;;;;;;;5031562;28;20041;-33
2022/01/15 03:58:20;;;;;;;2.38;1.40;;;;;;;;;;5027995;28;20060;-32
2022/01/15 04:00:51;;;;;;;1.63;1.20;;;;;;;;;;5041129;28;20032;-39
2022/01/15 04:03:17;;;;;;;2.35;1.00;;;;;;;;;;5027408;28;20053;-36
2022/01/15 04:05:50;;;;;;;2.47;1.10;;;;;;;;;;5036152;28;20475;-37
2022/01/15 04:08:19;;;;;;;3.85;0.93;;;;;;;;;;5039672;28;20600;-37
2022/01/15 04:10:45;;;;;;;4.47;1.20;;;;;;;;;;5024083;28;20112;-39
2022/01/15 04:13:17;;;;;;;1.50;0.88;;;;;;;;;;5021893;28;20132;-37
2022/01/15 04:15:51;;;;;;;1.50;1.02;;;;;;;;;;5031931;28;20060;-34
2022/01/15 04:18:22;;;;;;;1.50;0.93;;;;;;;;;;5038013;28;20518;-40
2022/01/15 04:20:48;;;;;;;2.05;1.15;;;;;;;;;;5030425;28;20064;-36
2022/01/15 04:23:15;;;;;;;4.20;1.25;;;;;;;;;;5028309;28;20098;-35
2022/01/15 04:25:46;;;;;;;4.13;1.27;;;;;;;;;;5041248;28;20044;-38
2022/01/15 04:28:12;;;;;;;1.88;1.13;;;;;;;;;;5046829;28;20470;-35
2022/01/15 04:30:46;;;;;;;2.95;1.45;;;;;;;;;;5031429;28;20036;-33
2022/01/15 04:33:12;;;;;;;1.92;1.40;;;;;;;;;;5041302;28;20036;-36
2022/01/15 04:35:38;;;;;;;1.73;1.10;;;;;;;;;;5032241;28;20037;-37
2022/01/15 04:38:11;;;;;;;1.40;1.27;;;;;;;;;;5026747;28;20458;-39
2022/01/15 04:40:37;;;;;;;1.35;1.10;;;;;;;;;;5040205;28;20033;-39
2022/01/15 04:43:04;;;;;;;1.85;1.40;;;;;;;;;;5029644;28;20033;-38
2022/01/15 04:45:30;;;;;;;1.85;1.10;;;;;;;;;;5026584;28;20725;-36
2022/01/15 04:47:57;;;;;;;1.45;1.20;;;;;;;;;;5023946;28;20033;-35
2022/01/15 04:50:22;;;;;;;1.42;1.30;;;;;;;;;;5022097;28;20049;-37
2022/01/15 04:52:48;;;;;;;3.80;1.10;;;;;;;;;;5032067;28;20029;-41
2022/01/15 04:55:14;;;;;;;1.98;1.23;;;;;;;;;;5031256;28;20026;-38
2022/01/15 04:57:40;;;;;;;2.95;1.38;;;;;;;;;;5038077;28;20065;-36
2022/01/15 05:00:14;;;;;;;1.50;1.10;;;;;;;;;;5042036;28;20028;-38
2022/01/15 05:02:44;;;;;;;1.40;0.95;;;;;;;;;;5027192;28;20032;-40
2022/01/15 05:05:10;;;;;;;1.35;1.02;;;;;;;;;;5026626;28;20639;-39
2022/01/15 05:07:36;;;;;;;2.05;1.10;;;;;;;;;;5041785;28;20037;-37
2022/01/15 05:10:02;;;;;;;1.63;1.23;;;;;;;;;;5046496;28;20123;-40
2022/01/15 05:12:31;;;;;;;4.80;1.05;;;;;;;;;;5031318;28;20510;-38
2022/01/15 05:14:58;;;;;;;2.45;1.40;;;;;;;;;;5034330;28;20060;-38
2022/01/15 05:17:25;;;;;;;2.15;1.40;;;;;;;;;;5035745;28;20033;-38
2022/01/15 05:19:51;;;;;;;2.40;1.38;;;;;;;;;;5026411;28;20124;-38
2022/01/15 05:22:17;;;;;;;2.65;0.90;;;;;;;;;;5041915;28;20191;-40
2022/01/15 05:24:42;;;;;;;1.45;1.25;;;;;;;;;;5037288;28;20475;-39
2022/01/15 05:27:08;;;;;;;2.25;1.25;;;;;;;;;;5038212;28;20043;-37
2022/01/15 05:29:37;;;;;;;4.03;1.58;;;;;;;;;;5043932;28;20071;-36
2022/01/15 05:32:02;;;;;;;2.00;1.60;;;;;;;;;;5042964;28;20115;-40
2022/01/15 05:34:28;;;;;;;1.45;1.17;;;;;;;;;;5042868;28;20111;-37
2022/01/15 05:36:53;;;;;;;1.98;1.48;;;;;;;;;;5032503;28;20543;-38
2022/01/15 05:39:19;;;;;;;1.70;1.23;;;;;;;;;;5032175;28;20380;-38
2022/01/15 05:41:44;;;;;;;1.52;1.02;;;;;;;;;;5039762;28;20108;-41
2022/01/15 05:44:10;;;;;;;1.98;1.25;;;;;;;;;;5044685;28;20124;-38
2022/01/15 05:46:35;;;;;;;1.50;1.23;;;;;;;;;;5032105;28;20049;-39
2022/01/15 05:49:02;;;;;;;9.13;2.00;;;;;;;;;;5032883;28;20454;-40
2022/01/15 05:51:29;;;;;;;1.45;1.23;;;;;;;;;;5042136;28;20033;-39
2022/01/15 05:53:59;;;;;;;6.03;1.00;;;;;;;;;;5039801;28;20490;-41
2022/01/15 05:56:25;;;;;;;1.67;1.00;;;;;;;;;;5033770;28;20487;-38
2022/01/15 05:58:50;;;;;;;4.82;1.20;;;;;;;;;;5038318;28;20039;-43
2022/01/15 06:01:16;;;;;;;1.63;1.10;;;;;;;;;;5038798;28;20078;-39
2022/01/15 06:03:41;;;;;;;2.28;1.20;;;;;;;;;;5026982;28;20049;-36
2022/01/15 06:06:08;;;;;;;6.43;1.25;;;;;;;;;;5034580;28;20076;-35
2022/01/15 06:08:34;;;;;;;5.03;1.58;;;;;;;;;;5053558;28;20043;-38
2022/01/15 06:10:59;;;;;;;3.83;1.42;;;;;;;;;;5025777;28;20025;-36
2022/01/15 06:13:25;;;;;;;3.60;1.58;;;;;;;;;;5034097;28;20036;-38
2022/01/15 06:15:50;;;;;;;3.42;1.40;;;;;;;;;;5033987;28;20044;-37
2022/01/15 06:18:16;;;;;;;5.30;1.42;;;;;;;;;;5034123;28;20402;-39
2022/01/15 06:20:41;;;;;;;3.67;1.40;;;;;;;;;;5038024;28;20492;-36
2022/01/15 06:23:07;;;;;;;2.10;1.30;;;;;;;;;;5026108;28;20571;-37
2022/01/15 06:25:32;;;;;;;1.92;1.00;;;;;;;;;;5028450;28;20045;-37
2022/01/15 06:27:57;;;;;;;3.90;1.75;;;;;;;;;;5024279;28;20133;-37
2022/01/15 06:30:23;;;;;;;1.85;1.15;;;;;;;;;;5024185;28;20025;-40
2022/01/15 06:32:49;;;;;;;1.90;1.40;;;;;;;;;;5025340;28;20025;-35
2022/01/15 06:35:16;;;;;;;1.80;1.50;;;;;;;;;;5037303;28;20120;-36
2022/01/15 06:37:42;;;;;;;2.80;1.27;;;;;;;;;;5029828;28;20573;-37
2022/01/15 06:40:07;;;;;;;3.47;1.20;;;;;;;;;;5038032;28;20035;-34
2022/01/15 06:42:33;;;;;;;2.78;1.50;;;;;;;;;;5034115;28;20344;-40
2022/01/15 06:44:59;;;;;;;5.45;2.45;;;;;;;;;;5038907;28;20036;-39
2022/01/15 06:47:25;;;;;;;2.63;1.40;;;;;;;;;;5038427;28;20063;-35
2022/01/15 06:49:50;;;;;;;3.90;1.50;;;;;;;;;;5034875;28;20823;-38
2022/01/15 06:52:16;;;;;;;4.93;1.42;;;;;;;;;;5029230;28;20811;-41
2022/01/15 06:54:41;;;;;;;4.65;1.42;;;;;;;;;;5029853;28;20030;-36
2022/01/15 06:57:07;;;;;;;3.92;1.50;;;;;;;;;;5031357;28;20118;-37
2022/01/15 06:59:32;;;;;;;8.68;2.20;;;;;;;;;;5028068;28;20041;-39
2022/01/15 07:01:58;;;;;;;4.05;1.20;;;;;;;;;;5021226;28;20069;-37
2022/01/15 07:04:24;;;;;;;4.88;1.88;;;;;;;;;;5036123;28;20597;-37
2022/01/15 07:06:49;;;;;;;5.88;1.70;;;;;;;;;;5022675;28;20025;-33
2022/01/15 07:09:15;;;;;;;7.55;1.70;;;;;;;;;;5028605;28;20049;-31
2022/01/15 07:11:41;;;;;;;5.05;2.03;;;;;;;;;;5034074;28;20117;-39
2022/01/15 07:14:06;;;;;;;8.65;1.60;;;;;;;;;;5023278;28;20575;-35
2022/01/15 07:16:34;;;;;;;5.38;1.45;;;;;;;;;;5039034;28;20025;-34
2022/01/15 07:19:00;;;;;;;2.78;1.80;;;;;;;;;;5023491;28;20506;-35
2022/01/15 07:21:25;;;;;;;7.25;1.70;;;;;;;;;;5029021;28;20034;-33
2022/01/15 07:23:51;;;;;;;7.95;2.20;;;;;;;;;;5028868;28;20029;-38
2022/01/15 07:26:16;;;;;;;8.52;2.10;;;;;;;;;;5030251;28;20025;-36
2022/01/15 07:28:42;;;;;;;10.70;2.20;;;;;;;;;;5033935;28;20025;-36
2022/01/15 07:31:08;;;;;;;3.30;1.70;;;;;;;;;;5042855;28;20651;-34
2022/01/15 07:33:33;;;;;;;9.88;2.55;;;;;;;;;;5039865;28;20024;-35
2022/01/15 07:35:59;;;;;;;6.85;2.50;;;;;;;;;;5029803;28;20075;-37
2022/01/15 07:38:25;;;;;;;5.38;2.38;;;;;;;;;;5042388;28;20045;-36
2022/01/15 07:40:54;;;;;;;7.10;2.33;;;;;;;;;;5032069;28;20036;-36
2022/01/15 07:43:20;;;;;;;12.10;2.75;;;;;;;;;;5024743;28;20030;-42
2022/01/15 07:45:45;;;;;;;7.95;2.63;;;;;;;;;;5030512;28;20246;-41
2022/01/15 07:48:11;;;;;;;7.53;2.33;;;;;;;;;;5034152;28;20033;-36
2022/01/15 07:50:36;;;;;;;4.55;2.30;;;;;;;;;;5025213;28;20025;-38
2022/01/15 07:53:02;;;;;;;4.53;2.03;;;;;;;;;;5036048;28;20032;-37
2022/01/15 07:55:27;;;;;;;12.10;2.53;;;;;;;;;;5021410;28;20578;-40
2022/01/15 07:57:53;;;;;;;7.45;2.50;;;;;;;;;;5031271;28;20032;-37
2022/01/15 08:00:19;;;;;;;11.27;3.03;;;;;;;;;;5034581;28;20188;-41
2022/01/15 08:02:44;;;;;;;9.57;3.25;;;;;;;;;;5031671;28;20028;-36
2022/01/15 08:05:10;;;;;;;11.43;3.28;;;;;;;;;;5036298;28;20025;-37
2022/01/15 08:07:37;;;;;;;10.52;2.95;;;;;;;;;;5039514;28;20071;-36
2022/01/15 08:10:07;;;;;;;11.98;2.83;;;;;;;;;;5041627;28;20496;-34
2022/01/15 08:12:49;;;;;;;5.10;2.50;;;;;;;;;;5037057;28;20040;-35
2022/01/15 08:15:15;;;;;;;3.25;2.35;;;;;;;;;;5036267;28;20498;-37
2022/01/15 08:17:43;;;;;;;8.80;2.50;;;;;;;;;;5039474;28;20190;-34
2022/01/15 08:20:10;;;;;;;8.43;2.20;;;;;;;;;;5040732;28;20068;-36
2022/01/15 08:22:36;;;;;;;7.32;2.60;;;;;;;;;;5030200;28;20124;-34
2022/01/15 08:25:01;;;;;;;7.40;2.20;;;;;;;;;;5039471;28;20100;-33
2022/01/15 08:27:27;;;;;;;8.90;2.67;;;;;;;;;;5037289;28;20025;-32
2022/01/15 08:29:53;;;;;;;6.28;2.75;;;;;;;;;;5034099;28;20021;-38
2022/01/15 08:32:19;;;;;;;6.93;2.40;;;;;;;;;;5042446;28;20025;-38
2022/01/15 08:34:45;;;;;;;5.60;2.42;;;;;;;;;;5023644;28;20026;-37
2022/01/15 08:37:10;;;;;;;9.77;2.85;;;;;;;;;;5037403;28;20025;-36
2022/01/15 08:39:36;;;;;;;5.90;2.22;;;;;;;;;;5042130;28;20075;-40
2022/01/15 08:42:06;;;;;;;5.18;2.78;;;;;;;;;;5041211;28;20032;-36
2022/01/15 08:44:32;;;;;;;7.18;2.63;;;;;;;;;;5034771;28;20099;-31
2022/01/15 08:46:58;;;;;;;5.07;2.55;;;;;;;;;;5021011;28;20071;-38
2022/01/15 08:49:23;;;;;;;8.60;3.03;;;;;;;;;;5024732;28;20126;-35
2022/01/15 08:51:49;;;;;;;6.97;2.20;;;;;;;;;;5029146;28;20025;-35
2022/01/15 08:54:14;;;;;;;4.22;2.60;;;;;;;;;;5031021;28;20021;-35
2022/01/15 08:56:40;;;;;;;6.18;2.42;;;;;;;;;;5034227;28;20033;-40
2022/01/15 08:59:05;;;;;;;7.63;2.78;;;;;;;;;;5036756;28;20058;-37
2022/01/15 09:01:34;;;;;;;3.40;2.17;;;;;;;;;;5034311;28;20040;-35
2022/01/15 09:03:59;;;;;;;2.50;2.10;;;;;;;;;;5039158;28;20033;-37
2022/01/15 09:06:25;;;;;;;10.38;2.40;;;;;;;;;;5032532;28;20044;-37
2022/01/15 09:08:51;;;;;;;5.97;2.88;;;;;;;;;;5029668;28;20515;-34
2022/01/15 09:11:16;;;;;;;5.63;2.95;;;;;;;;;;5020737;28;20033;-36
2022/01/15 09:13:43;;;;;;;8.00;2.70;;;;;;;;;;5030259;28;20499;-34
2022/01/15 09:16:12;;;;;;;9.02;2.70;;;;;;;;;;5029382;28;20472;-38
2022/01/15 09:18:37;;;;;;;5.68;2.70;;;;;;;;;;5040443;28;20033;-37
2022/01/15 09:21:04;;;;;;;7.75;2.70;;;;;;;;;;5027023;28;20040;-34
2022/01/15 09:23:30;;;;;;;8.35;2.63;;;;;;;;;;5039177;28;20032;-37
2022/01/15 09:25:57;;;;;;;11.68;3.03;;;;;;;;;;5041072;28;20118;-37
2022/01/15 09:31:09;;;;;;;3.92;2.40;;;;;;;;;;5034328;28;20179;-40
2022/01/15 09:33:34;;;;;;;7.20;3.00;;;;;;;;;;5031750;28;20029;-38
2022/01/15 09:36:00;;;;;;;7.00;3.08;;;;;;;;;;5033571;28;20102;-39
2022/01/15 09:38:26;;;;;;;7.30;3.00;;;;;;;;;;5031276;28;20025;-37
2022/01/15 09:40:51;;;;;;;9.80;3.42;;;;;;;;;;5027977;28;20645;-37
2022/01/15 09:43:17;;;;;;;8.73;2.95;;;;;;;;;;5032358;28;20032;-34
2022/01/15 09:45:43;;;;;;;11.65;2.78;;;;;;;;;;5021186;28;20082;-35
2022/01/15 09:48:10;;;;;;;15.73;3.70;;;;;;;;;;5024959;28;20388;-40
2022/01/15 09:50:41;;;;;;;5.60;3.20;;;;;;;;;;5007900;28;20150;-36
2022/01/15 09:53:07;;;;;;;10.18;3.20;;;;;;;;;;5033348;28;20104;-34
2022/01/15 09:55:32;;;;;;;8.05;3.58;;;;;;;;;;5030679;28;20025;-38
2022/01/15 09:58:00;;;;;;;12.98;3.95;;;;;;;;;;5031834;28;20021;-37
2022/01/15 10:00:25;;;;;;;12.60;3.90;;;;;;;;;;5033832;28;20483;-35
2022/01/15 10:02:51;;;;;;;7.10;3.22;;;;;;;;;;5028013;28;20039;-35
2022/01/15 10:05:18;;;;;;;8.13;4.00;;;;;;;;;;5032742;28;20029;-40
2022/01/15 10:08:20;;;;;;;10.98;3.97;;;;;;;;;;5033510;28;20045;-39
2022/01/15 10:10:50;;;;;;;6.25;3.60;;;;;;;;;;5006678;28;20119;-39
2022/01/15 10:13:23;;;;;;;9.77;4.32;;;;;;;;;;5029376;28;20067;-40
2022/01/15 10:16:00;;;;;;;8.65;3.53;;;;;;;;;;5028321;28;20411;-35
2022/01/15 10:18:27;;;;;;;8.18;3.28;;;;;;;;;;5022649;28;20571;-38
2022/01/15 10:20:55;;;;;;;14.15;4.10;;;;;;;;;;5036530;28;20431;-37
2022/01/15 10:23:23;;;;;;;8.52;4.00;;;;;;;;;;5037004;28;20076;-39
2022/01/15 10:26:15;;;;;;;8.23;4.32;;;;;;;;;;5032556;28;20026;-41
2022/01/15 10:29:01;;;;;;;11.02;4.10;;;;;;;;;;5029546;28;20080;-32
2022/01/15 10:31:31;;;;;;;11.45;4.28;;;;;;;;;;5029703;28;20057;-35
2022/01/15 10:33:59;;;;;;;11.15;4.22;;;;;;;;;;5037846;28;20032;-39
2022/01/15 10:36:33;;;;;;;13.65;4.40;;;;;;;;;;5030323;28;20068;-38
2022/01/15 10:39:14;;;;;;;14.18;7.25;;;;;;;;;;5037617;28;20462;-38
2022/01/15 10:41:40;;;;;;;14.95;7.13;;;;;;;;;;5034663;28;20511;-33
2022/01/15 10:44:32;;;;;;;18.23;7.03;;;;;;;;;;5043175;28;20025;-37
2022/01/15 10:47:15;;;;;;;14.13;6.75;;;;;;;;;;5040015;28;20064;-32
2022/01/15 10:49:41;;;;;;;13.85;6.97;;;;;;;;;;5032382;28;20036;-36
2022/01/15 10:52:17;;;;;;;13.48;5.80;;;;;;;;;;5037406;28;20021;-37
2022/01/15 10:55:08;;;;;;;13.20;6.07;;;;;;;;;;5037923;28;20037;-35
2022/01/15 10:57:53;;;;;;;21.25;7.13;;;;;;;;;;5037195;28;20032;-39
2022/01/15 11:00:27;;;;;;;21.25;6.18;;;;;;;;;;5034477;28;20022;-32
2022/01/15 11:03:03;;;;;;;17.58;6.63;;;;;;;;;;5034115;28;20128;-37
2022/01/15 11:05:38;;;;;;;20.92;6.57;;;;;;;;;;5039980;28;20021;-36
2022/01/15 11:08:27;;;;;;;16.30;6.97;;;;;;;;;;5031609;28;20072;-38
2022/01/15 11:10:57;;;;;;;16.17;6.80;;;;;;;;;;5029959;28;20084;-35
2022/01/15 11:13:33;;;;;;;21.60;6.63;;;;;;;;;;5031703;28;20029;-38
2022/01/15 11:16:05;;;;;;;24.85;6.88;;;;;;;;;;5033145;28;20103;-39
2022/01/15 11:18:35;;;;;;;19.25;6.63;;;;;;;;;;5036582;28;20082;-34
2022/01/15 11:21:04;;;;;;;24.30;7.68;;;;;;;;;;5032026;28;20037;-36
2022/01/15 11:23:30;;;;;;;25.80;7.15;;;;;;;;;;5028521;28;20116;-36
2022/01/15 11:25:57;;;;;;;14.02;6.32;;;;;;;;;;5028437;28;20079;-38
2022/01/15 11:28:24;;;;;;;16.88;6.60;;;;;;;;;;5040876;28;20415;-38
2022/01/15 11:30:55;;;;;;;21.30;7.43;;;;;;;;;;5043270;28;20029;-38
2022/01/15 11:33:21;;;;;;;17.42;6.55;;;;;;;;;;5023468;28;20388;-34
2022/01/15 11:35:48;;;;;;;17.48;6.38;;;;;;;;;;5005354;28;20041;-36
2022/01/15 11:38:46;;;;;;;24.00;7.15;;;;;;;;;;5025763;28;20112;-34
2022/01/15 11:41:26;;;;;;;14.43;6.97;;;;;;;;;;5037457;28;20053;-38
2022/01/15 11:43:53;;;;;;;17.00;7.20;;;;;;;;;;5035111;28;20034;-38
2022/01/15 11:46:26;;;;;;;14.82;7.30;;;;;;;;;;5033228;28;20063;-32
2022/01/15 11:48:51;;;;;;;19.45;7.30;;;;;;;;;;5039065;28;20502;-38
2022/01/15 11:51:18;;;;;;;14.95;6.47;;;;;;;;;;5033819;28;20040;-34
2022/01/15 11:53:57;;;;;;;19.40;7.22;;;;;;;;;;5034503;28;20041;-35
2022/01/15 11:56:25;;;;;;;15.77;6.82;;;;;;;;;;5028441;28;20029;-37
2022/01/15 11:58:51;;;;;;;14.90;7.45;;;;;;;;;;5022200;28;20033;-36
2022/01/15 12:01:39;;;;;;;15.40;6.80;;;;;;;;;;5038831;28;20033;-39
2022/01/15 12:04:24;;;;;;;16.17;8.18;;;;;;;;;;5035350;28;20037;-38
2022/01/15 12:07:03;;;;;;;13.63;7.63;;;;;;;;;;5030892;28;20026;-38
2022/01/15 12:09:42;;;;;;;17.33;7.15;;;;;;;;;;5038591;28;20044;-36
2022/01/15 12:12:20;;;;;;;14.70;6.63;;;;;;;;;;5035787;28;20035;-38
2022/01/15 12:14:46;;;;;;;58.00;24.67;;;;;;;;;;5022370;28;20112;-31
2022/01/15 12:17:36;;;;;;;54.88;21.45;;;;;;;;;;5022428;28;20140;-34
2022/01/15 12:20:17;;;;;;;45.10;19.35;;;;;;;;;;5021648;28;20045;-31
2022/01/15 12:22:49;;;;;;;51.20;18.38;;;;;;;;;;5022075;28;20593;-40
2022/01/15 12:25:17;;;;;;;38.00;17.38;;;;;;;;;;5029366;28;20036;-38
2022/01/15 12:27:55;;;;;;;38.10;17.27;;;;;;;;;;5031885;28;20045;-37
2022/01/15 12:30:31;;;;;;;44.85;16.70;;;;;;;;;;5040634;28;20024;-36
2022/01/15 12:32:57;;;;;;;40.28;17.02;;;;;;;;;;5034572;28;20126;-31
2022/01/15 12:35:24;;;;;;;32.22;13.98;;;;;;;;;;5037062;28;20442;-36
2022/01/15 12:38:13;;;;;;;33.53;14.32;;;;;;;;;;5033103;28;20099;-33
2022/01/15 12:40:42;;;;;;;33.03;13.85;;;;;;;;;;5041071;28;20032;-36
2022/01/15 12:43:13;;;;;;;34.42;13.93;;;;;;;;;;5041947;28;20037;-38
2022/01/15 12:45:39;;;;;;;28.83;13.40;;;;;;;;;;5042226;28;20486;-34
2022/01/15 12:48:07;;;;;;;27.85;11.90;;;;;;;;;;5035700;28;20147;-36
2022/01/15 12:50:52;;;;;;;30.75;12.23;;;;;;;;;;5035728;28;20041;-32
2022/01/15 12:53:22;;;;;;;32.33;12.20;;;;;;;;;;5026745;28;20029;-35
2022/01/15 12:55:47;;;;;;;27.58;11.68;;;;;;;;;;5028130;28;20621;-34
2022/01/15 12:58:21;;;;;;;28.60;11.90;;;;;;;;;;5030927;28;20025;-33
2022/01/15 13:00:46;;;;;;;27.80;11.35;;;;;;;;;;5033378;28;20604;-33
2022/01/15 13:03:13;;;;;;;26.17;11.40;;;;;;;;;;5029359;28;20025;-38
2022/01/15 13:05:42;;;;;;;26.63;11.60;;;;;;;;;;5031843;28;20554;-39
2022/01/15 13:08:13;;;;;;;30.17;12.07;;;;;;;;;;5027158;28;20037;-34
2022/01/15 13:10:51;;;;;;;22.48;11.35;;;;;;;;;;5022078;28;20030;-37
2022/01/15 13:13:37;;;;;;;24.85;11.02;;;;;;;;;;5021253;28;20033;-40
2022/01/15 13:16:06;;;;;;;22.05;11.90;;;;;;;;;;5021259;28;20060;-35
2022/01/15 13:18:34;;;;;;;18.50;10.43;;;;;;;;;;5021680;28;20042;-34
2022/01/15 13:21:00;;;;;;;25.70;10.90;;;;;;;;;;5037549;28;20120;-33
2022/01/15 13:23:33;;;;;;;22.67;10.77;;;;;;;;;;5040872;28;20182;-32
2022/01/15 13:25:59;;;;;;;23.63;10.60;;;;;;;;;;5035436;28;20028;-37
2022/01/15 13:28:25;;;;;;;24.20;10.63;;;;;;;;;;5033604;28;20116;-40
2022/01/15 13:30:50;;;;;;;25.58;10.30;;;;;;;;;;5031481;28;20025;-34
2022/01/15 13:33:16;;;;;;;21.50;10.50;;;;;;;;;;5035213;28;20047;-36
2022/01/15 13:35:42;;;;;;;21.75;10.32;;;;;;;;;;5033252;28;20036;-37
2022/01/15 13:38:09;;;;;;;23.67;10.15;;;;;;;;;;5030752;28;20510;-36
2022/01/15 13:40:40;;;;;;;22.80;11.55;;;;;;;;;;5034896;28;20020;-36
2022/01/15 13:43:08;;;;;;;21.98;10.85;;;;;;;;;;5035937;28;20037;-35
2022/01/15 13:45:39;;;;;;;24.92;11.57;;;;;;;;;;5038134;28;20029;-40
2022/01/15 13:48:11;;;;;;;25.00;10.95;;;;;;;;;;5037320;28;20502;-35
2022/01/15 13:53:29;;;;;;;20.80;9.93;;;;;;;;;;5028296;28;20040;-40
2022/01/15 13:56:12;;;;;;;20.77;10.10;;;;;;;;;;5045177;28;20060;-40
2022/01/15 13:58:37;;;;;;;23.33;11.45;;;;;;;;;;5045263;28;20461;-40
2022/01/15 14:01:15;;;;;;;23.00;10.38;;;;;;;;;;5026380;28;20601;-41
2022/01/15 14:03:40;;;;;;;22.67;9.70;;;;;;;;;;5045077;28;20933;-35
2022/01/15 14:06:06;;;;;;;19.88;9.70;;;;;;;;;;5029172;28;20029;-39
2022/01/15 14:08:31;;;;;;;18.30;9.52;;;;;;;;;;5027753;28;20128;-38
2022/01/15 14:10:57;;;;;;;17.83;9.63;;;;;;;;;;5040860;28;20037;-39
2022/01/15 14:13:27;;;;;;;19.63;9.48;;;;;;;;;;5044986;28;20024;-38
2022/01/15 14:15:53;;;;;;;28.13;9.07;;;;;;;;;;5044024;28;20462;-38
2022/01/15 14:18:25;;;;;;;23.85;8.68;;;;;;;;;;5044443;28;20025;-37
2022/01/15 14:23:39;;;;;;;23.40;9.63;;;;;;;;;;5044971;28;20033;-37
2022/01/15 14:26:34;;;;;;;24.67;9.60;;;;;;;;;;5043766;28;20041;-36
2022/01/15 14:29:00;;;;;;;18.48;9.63;;;;;;;;;;5018650;28;20156;-38
2022/01/15 14:31:27;;;;;;;20.48;8.95;;;;;;;;;;5034312;28;20030;-38
2022/01/15 14:33:53;;;;;;;27.83;9.25;;;;;;;;;;5036930;28;20039;-35
2022/01/15 14:36:19;;;;;;;21.00;9.48;;;;;;;;;;5032987;28;20561;-35
2022/01/15 14:38:45;;;;;;;20.25;10.18;;;;;;;;;;5026794;28;20025;-37
2022/01/15 14:41:10;;;;;;;20.38;9.93;;;;;;;;;;5022427;28;20887;-35
2022/01/15 14:43:36;;;;;;;25.48;9.95;;;;;;;;;;5031439;28;20591;-34
2022/01/15 14:46:03;;;;;;;20.85;9.98;;;;;;;;;;5042906;28;20033;-40
2022/01/15 14:48:31;;;;;;;24.95;10.30;;;;;;;;;;5034223;28;20639;-37
2022/01/15 14:50:58;;;;;;;18.30;10.02;;;;;;;;;;5040648;28;20800;-38
2022/01/15 14:53:24;;;;;;;20.00;9.35;;;;;;;;;;5040321;28;20116;-33
2022/01/15 14:55:51;;;;;;;18.70;9.40;;;;;;;;;;5040606;28;20104;-34
2022/01/15 14:58:17;;;;;;;21.92;9.93;;;;;;;;;;5042393;28;20035;-39
2022/01/15 15:00:43;;;;;;;24.63;11.02;;;;;;;;;;5040154;28;20025;-39
2022/01/15 15:03:08;;;;;;;57.20;23.85;;;;;;;;;;5032504;28;20163;-37
2022/01/15 15:05:34;;;;;;;60.28;24.05;;;;;;;;;;5032797;28;20024;-39
2022/01/15 15:08:00;;;;;;;45.67;20.83;;;;;;;;;;5029686;28;20037;-40
2022/01/15 15:10:25;;;;;;;46.60;18.75;;;;;;;;;;5031314;28;20394;-35